VTBS Airport Information

Runway Information
Runway 01L Length 12139 ft width 197 ft
Elevation 0 ft Threshold 0 ft Heading 14
Runway 19R Length 12139 ft Width 197 ft
Elevation 0 ft Threshold 0 ft Heading 194
Runway 01R Length 13123 ft width 197 ft
Elevation 0 ft Threshold 0 ft Heading 14
Runway 19L Length 13123 ft Width 197 ft
Elevation 0 ft Threshold 0 ft Heading 194
Airport Frequencies
Type ATIS Name Frequency 127.8 MHZ
Type GROUND (EA Name Frequency 121.65 MHZ
Type GROUND (MA Name Frequency 121.75 MHZ
Type GROUND (WE Name Frequency 121.95 MHZ
Type TOWER (01L Name Frequency 119 MHZ
Type TOWER (01R Name Frequency 118.2 MHZ
Airport Navaids
Type VOR-DME Name Suvarnabhumi Intl Frequency 111400 KHZ
Airport Weather Information & NOTAM
ADDS - METARS form results

(2354 UTC 06 December 2019)
Data provider http://aviationweather.gov/metar/data/
 
METAR text: VTBS 062330Z 06012KT 9000 NSC 19/08 Q1017 NOSIG
Conditions at: VTBS (CHON BURI/SATTAH, TH) observed 2330 UTC 06 December 2019
Temperature: 19.0°C (66°F)
Dewpoint: 8.0°C (46°F) [RH = 49%]
Pressure (altimeter): 30.03 inches Hg (1017.0 mb)
Winds: from the ENE (60 degrees) at 14 MPH (12 knots; 6.2 m/s)
Visibility: 6 miles ( 9 km)
Ceiling: at least 12,000 feet AGL
Clouds: sky clear below 12,000 feet AGL
Weather: no significant weather observed at this time

METAR text: VTBS 062300Z 06014KT CAVOK 19/07 Q1017 NOSIG
Conditions at: VTBS (CHON BURI/SATTAH, TH) observed 2300 UTC 06 December 2019
Temperature: 19.0°C (66°F)
Dewpoint: 7.0°C (45°F) [RH = 46%]
Pressure (altimeter): 30.03 inches Hg (1017.0 mb)
Winds: from the ENE (60 degrees) at 16 MPH (14 knots; 7.2 m/s)
Visibility: 6 or more miles (10+ km)
Ceiling: ceiling and visibility are OK
Clouds: unknown
Weather: no significant weather observed at this time

Forecast for: VTBS (CHON BURI/SATTAH, TH)
Text: TAF VTBS 062300Z 0700/0806 06010KT 9999 FEW040
Forecast period: 0000 UTC 07 December 2019 to 0600 UTC 08 December 2019
Forecast type: FROM: standard forecast or significant change
Winds: from the ENE (60 degrees) at 12 MPH (10 knots; 5.1 m/s)
Visibility: 6 or more miles 10+ km)
Ceiling: at least 12,000 feet AGL
Clouds: few clouds at 4000 feet AGL
Weather: no significant weather forecast for this period